Time;durP1;ratioP1;P1;durP2;ratioP2;P2;SDS_P1;SDS_P2;PMS_P1;PMS_P2;Temp;Humidity;BMP_temperature;BMP_pressure;BME280_temperature;BME280_humidity;BME280_pressure;Samples;Min_cycle;Max_cycle;Signal;HPM_P1;HPM_P2
2021/06/25 00:02:09;;;;;;;;;;;13.00;99.90;;;;;;5095331;28;19926;-81
2021/06/25 00:04:35;;;;;;;;;;;12.90;99.90;;;;;;5113852;28;19919;-81
2021/06/25 00:07:01;;;;;;;;;;;12.80;99.90;;;;;;5097363;28;19926;-81
2021/06/25 00:09:26;;;;;;;;;;;12.80;99.90;;;;;;5086196;28;20378;-81
2021/06/25 00:11:52;;;;;;;;;;;12.90;99.90;;;;;;5098714;28;19969;-81
2021/06/25 00:14:21;;;;;;;;;;;12.90;99.90;;;;;;5089307;28;19919;-81
2021/06/25 00:16:50;;;;;;;;;;;12.90;99.90;;;;;;5111799;28;20264;-81
2021/06/25 00:19:16;;;;;;;;;;;12.90;99.90;;;;;;5097279;28;20297;-81
2021/06/25 00:21:43;;;;;;;;;;;12.90;99.90;;;;;;5105093;28;19919;-81
2021/06/25 00:24:08;;;;;;;;;;;12.90;99.90;;;;;;5101337;28;19920;-81
2021/06/25 00:26:34;;;;;;;;;;;12.90;99.90;;;;;;5077481;28;19931;-81
2021/06/25 00:29:00;;;;;;;;;;;12.80;99.90;;;;;;5092546;28;19920;-81
2021/06/25 00:31:26;;;;;;;;;;;12.80;99.90;;;;;;5115099;27;20293;-81
2021/06/25 00:33:52;;;;;;;;;;;12.80;99.90;;;;;;5087590;28;19916;-81
2021/06/25 00:36:18;;;;;;;;;;;12.80;99.90;;;;;;5090401;28;19981;-81
2021/06/25 00:38:43;;;;;;;;;;;12.90;99.90;;;;;;5096578;28;19920;-81
2021/06/25 00:41:09;;;;;;;;;;;12.80;99.90;;;;;;5102600;28;19923;-81
2021/06/25 00:43:37;;;;;;;;;;;12.80;99.90;;;;;;5092766;28;20654;-82
2021/06/25 00:46:02;;;;;;;;;;;12.80;99.90;;;;;;5080812;28;19923;-81
2021/06/25 00:48:28;;;;;;;;;;;12.80;99.90;;;;;;5091056;28;19920;-81
2021/06/25 00:50:54;;;;;;;;;;;12.80;99.90;;;;;;5108377;28;19926;-80
2021/06/25 00:53:20;;;;;;;;;;;12.70;99.90;;;;;;5103581;28;20014;-82
2021/06/25 00:55:45;;;;;;;;;;;12.70;99.90;;;;;;5099425;28;19919;-81
2021/06/25 00:58:12;;;;;;;;;;;12.70;99.90;;;;;;5103275;28;19916;-81
2021/06/25 01:00:38;;;;;;;;;;;12.70;99.90;;;;;;5099652;28;19959;-81
2021/06/25 01:03:04;;;;;;;;;;;12.70;99.90;;;;;;5102994;28;19975;-81
2021/06/25 01:05:29;;;;;;;;;;;12.60;99.90;;;;;;5099438;28;19923;-81
2021/06/25 01:07:55;;;;;;;;;;;12.50;99.90;;;;;;5109234;28;20041;-81
2021/06/25 01:10:21;;;;;;;;;;;12.60;99.90;;;;;;5098487;28;20005;-81
2021/06/25 01:12:47;;;;;;;;;;;12.60;99.90;;;;;;5099036;28;19916;-81
2021/06/25 01:15:13;;;;;;;;;;;12.70;99.90;;;;;;5099741;28;19920;-81
2021/06/25 01:17:40;;;;;;;;;;;12.70;99.90;;;;;;5105320;28;19920;-81
2021/06/25 01:20:08;;;;;;;;;;;12.80;99.90;;;;;;5107298;28;19927;-80
2021/06/25 01:22:34;;;;;;;;;;;12.80;99.90;;;;;;5099901;28;20462;-81
2021/06/25 01:25:04;;;;;;;;;;;12.90;99.90;;;;;;5106266;28;20353;-81
2021/06/25 01:27:31;;;;;;;;;;;12.90;99.90;;;;;;5101955;28;19922;-81
2021/06/25 01:30:00;;;;;;;;;;;12.80;99.90;;;;;;5108592;28;19931;-81
2021/06/25 01:32:26;;;;;;;;;;;12.80;99.90;;;;;;5105015;28;20487;-81
2021/06/25 01:34:52;;;;;;;;;;;12.70;99.90;;;;;;5073445;28;19924;-81
2021/06/25 01:37:18;;;;;;;;;;;12.60;99.90;;;;;;5100543;28;19931;-81
2021/06/25 01:39:47;;;;;;;;;;;12.60;99.90;;;;;;5097533;28;19967;-81
2021/06/25 01:42:13;;;;;;;;;;;12.60;99.90;;;;;;5101160;28;19945;-81
2021/06/25 01:44:39;;;;;;;;;;;12.50;99.90;;;;;;5098111;28;19927;-81
2021/06/25 01:47:04;;;;;;;;;;;12.50;99.90;;;;;;5101960;28;19926;-80
2021/06/25 01:49:31;;;;;;;;;;;12.50;99.90;;;;;;5099111;28;19923;-81
2021/06/25 01:51:57;;;;;;;;;;;12.40;99.90;;;;;;5105633;28;20014;-81
2021/06/25 01:54:23;;;;;;;;;;;12.40;99.90;;;;;;5113237;27;20003;-80
2021/06/25 01:56:49;;;;;;;;;;;12.30;99.90;;;;;;5105236;28;19927;-80
2021/06/25 01:59:15;;;;;;;;;;;12.40;99.90;;;;;;5105251;28;19920;-81
2021/06/25 02:01:41;;;;;;;;;;;12.40;99.90;;;;;;5107380;28;19923;-81
2021/06/25 02:04:06;;;;;;;;;;;12.40;99.90;;;;;;5102551;28;20025;-80
2021/06/25 02:06:32;;;;;;;;;;;12.30;99.90;;;;;;5080520;28;19920;-81
2021/06/25 02:08:58;;;;;;;;;;;12.40;99.90;;;;;;5094977;28;19935;-80
2021/06/25 02:11:24;;;;;;;;;;;12.40;99.90;;;;;;5108434;28;19945;-81
2021/06/25 02:13:49;;;;;;;;;;;12.40;99.90;;;;;;5097997;28;20656;-81
2021/06/25 02:16:15;;;;;;;;;;;12.40;99.90;;;;;;5096003;28;20000;-81
2021/06/25 02:18:41;;;;;;;;;;;12.40;99.90;;;;;;5107251;28;20472;-81
2021/06/25 02:21:06;;;;;;;;;;;12.40;99.90;;;;;;5107977;28;19920;-81
2021/06/25 02:23:33;;;;;;;;;;;12.40;99.90;;;;;;5105808;28;19926;-81
2021/06/25 02:25:58;;;;;;;;;;;12.40;99.90;;;;;;5113321;27;19924;-80
2021/06/25 02:28:24;;;;;;;;;;;12.40;99.90;;;;;;5104319;28;19927;-81
2021/06/25 02:30:50;;;;;;;;;;;12.50;99.90;;;;;;5112255;27;19916;-81
2021/06/25 02:33:16;;;;;;;;;;;12.50;99.90;;;;;;5098859;28;19930;-81
2021/06/25 02:35:41;;;;;;;;;;;12.50;99.90;;;;;;5107581;28;19916;-81
2021/06/25 02:38:07;;;;;;;;;;;12.60;99.90;;;;;;5096545;28;20280;-81
2021/06/25 02:40:33;;;;;;;;;;;12.60;99.90;;;;;;5102303;28;19937;-81
2021/06/25 02:42:59;;;;;;;;;;;12.60;99.90;;;;;;5104393;28;19923;-81
2021/06/25 02:45:24;;;;;;;;;;;12.70;99.90;;;;;;5104665;28;19919;-81
2021/06/25 02:47:50;;;;;;;;;;;12.70;99.90;;;;;;5099105;28;19962;-81
2021/06/25 02:50:16;;;;;;;;;;;12.60;99.90;;;;;;5103301;28;20333;-81
2021/06/25 02:52:42;;;;;;;;;;;12.60;99.90;;;;;;5096687;28;20420;-81
2021/06/25 02:55:09;;;;;;;;;;;12.60;99.90;;;;;;5105705;28;19915;-81
2021/06/25 02:57:35;;;;;;;;;;;12.60;99.90;;;;;;5098719;28;19959;-81
2021/06/25 03:00:07;;;;;;;;;;;12.60;99.90;;;;;;5105966;28;19926;-81
2021/06/25 03:02:33;;;;;;;;;;;12.60;99.90;;;;;;5099120;28;19922;-80
2021/06/25 03:04:59;;;;;;;;;;;12.60;99.90;;;;;;5105949;28;19919;-81
2021/06/25 03:07:25;;;;;;;;;;;12.60;99.90;;;;;;5101035;28;20043;-81
2021/06/25 03:09:50;;;;;;;;;;;12.60;99.90;;;;;;5075338;28;19954;-80
2021/06/25 03:12:16;;;;;;;;;;;12.60;99.90;;;;;;5097388;28;19930;-81
2021/06/25 03:14:42;;;;;;;;;;;12.60;99.90;;;;;;5115663;27;19977;-81
2021/06/25 03:17:09;;;;;;;;;;;12.60;99.90;;;;;;5099030;28;19923;-81
2021/06/25 03:19:35;;;;;;;;;;;12.60;99.90;;;;;;5087702;28;19923;-81
2021/06/25 03:22:01;;;;;;;;;;;12.60;99.90;;;;;;5096814;28;19916;-81
2021/06/25 03:24:33;;;;;;;;;;;12.60;99.90;;;;;;5102295;28;19942;-81
2021/06/25 03:26:59;;;;;;;;;;;12.60;99.90;;;;;;5103427;28;19924;-81
2021/06/25 03:29:24;;;;;;;;;;;12.60;99.90;;;;;;5088393;28;19926;-81
2021/06/25 03:31:50;;;;;;;;;;;12.60;99.90;;;;;;5088291;28;20030;-80
2021/06/25 03:34:16;;;;;;;;;;;12.60;99.90;;;;;;5113144;28;20473;-81
2021/06/25 03:36:41;;;;;;;;;;;12.60;99.90;;;;;;5103617;28;19968;-81
2021/06/25 03:39:07;;;;;;;;;;;12.60;99.90;;;;;;5100680;28;19911;-81
2021/06/25 03:41:33;;;;;;;;;;;12.60;99.90;;;;;;5096004;28;19920;-80
2021/06/25 03:43:59;;;;;;;;;;;12.60;99.90;;;;;;5105201;28;20411;-81
2021/06/25 03:46:24;;;;;;;;;;;12.60;99.90;;;;;;5107392;28;20283;-81
2021/06/25 03:48:50;;;;;;;;;;;12.50;99.90;;;;;;5088661;28;20278;-81
2021/06/25 03:51:16;;;;;;;;;;;12.50;99.90;;;;;;5113789;28;19920;-82
2021/06/25 03:53:42;;;;;;;;;;;12.60;99.90;;;;;;5078951;28;19916;-81
2021/06/25 03:56:11;;;;;;;;;;;12.60;99.90;;;;;;5105015;28;19927;-81
2021/06/25 03:58:42;;;;;;;;;;;12.70;99.90;;;;;;5111206;28;19916;-81
2021/06/25 04:01:08;;;;;;;;;;;12.80;99.90;;;;;;5097617;28;19922;-81
2021/06/25 04:03:35;;;;;;;;;;;12.70;99.90;;;;;;5105952;28;19947;-81
2021/06/25 04:06:01;;;;;;;;;;;12.70;99.90;;;;;;5097522;28;20341;-82
2021/06/25 04:08:29;;;;;;;;;;;12.80;99.90;;;;;;5108791;28;19919;-81
2021/06/25 04:10:55;;;;;;;;;;;12.80;99.90;;;;;;5110423;28;19922;-81
2021/06/25 04:13:21;;;;;;;;;;;12.80;99.90;;;;;;5110997;28;19951;-81
2021/06/25 04:15:46;;;;;;;;;;;12.90;99.90;;;;;;5104535;28;19965;-81
2021/06/25 04:18:13;;;;;;;;;;;13.00;99.90;;;;;;5101998;28;19920;-82
2021/06/25 04:20:39;;;;;;;;;;;13.10;99.90;;;;;;5110301;28;19947;-81
2021/06/25 04:23:08;;;;;;;;;;;13.10;99.90;;;;;;5115979;27;19916;-82
2021/06/25 04:25:34;;;;;;;;;;;13.20;99.90;;;;;;5102273;28;20014;-82
2021/06/25 04:28:00;;;;;;;;;;;13.30;99.90;;;;;;5100757;28;19922;-81
2021/06/25 04:30:27;;;;;;;;;;;13.40;99.90;;;;;;5109106;28;19931;-81
2021/06/25 04:32:53;;;;;;;;;;;13.40;99.90;;;;;;5106876;28;19958;-82
2021/06/25 04:35:19;;;;;;;;;;;13.50;99.90;;;;;;5109544;28;19954;-81
2021/06/25 04:37:44;;;;;;;;;;;13.60;99.90;;;;;;5077864;28;19912;-81
2021/06/25 04:40:10;;;;;;;;;;;13.60;99.90;;;;;;5091823;28;20838;-81
2021/06/25 04:42:38;;;;;;;;;;;13.70;99.90;;;;;;5109867;28;20260;-81
2021/06/25 04:45:04;;;;;;;;;;;13.70;99.90;;;;;;5112757;28;19919;-82
2021/06/25 04:47:34;;;;;;;;;;;13.80;99.90;;;;;;5091259;28;19915;-81
2021/06/25 04:50:01;;;;;;;;;;;13.80;99.90;;;;;;5111316;28;19919;-81
2021/06/25 04:52:26;;;;;;;;;;;13.90;99.90;;;;;;5088505;28;19919;-82
2021/06/25 04:54:52;;;;;;;;;;;13.90;99.90;;;;;;5083832;28;19954;-81
2021/06/25 04:57:19;;;;;;;;;;;13.90;99.90;;;;;;5110734;28;19916;-81
2021/06/25 04:59:44;;;;;;;;;;;13.90;99.90;;;;;;5111163;28;20266;-81
2021/06/25 05:02:10;;;;;;;;;;;14.00;99.90;;;;;;5111754;28;20324;-81
2021/06/25 05:04:35;;;;;;;;;;;14.10;99.90;;;;;;5063254;28;20392;-80
2021/06/25 05:07:01;;;;;;;;;;;14.10;99.90;;;;;;5100141;28;19924;-81
2021/06/25 05:09:27;;;;;;;;;;;14.10;99.90;;;;;;5094161;28;19915;-81
2021/06/25 05:11:53;;;;;;;;;;;14.10;99.90;;;;;;5109821;28;20298;-82
2021/06/25 05:14:23;;;;;;;;;;;14.20;99.90;;;;;;5093719;28;19927;-81
2021/06/25 05:16:49;;;;;;;;;;;14.20;99.90;;;;;;5111961;28;19915;-81
2021/06/25 05:19:15;;;;;;;;;;;14.20;99.90;;;;;;5110300;28;19915;-81
2021/06/25 05:21:41;;;;;;;;;;;14.20;99.90;;;;;;5092295;28;19931;-81
2021/06/25 05:24:07;;;;;;;;;;;14.30;99.90;;;;;;5103714;28;20380;-80
2021/06/25 05:26:33;;;;;;;;;;;14.20;99.90;;;;;;5092237;28;19920;-80
2021/06/25 05:28:59;;;;;;;;;;;14.30;99.90;;;;;;5112016;28;19922;-81
2021/06/25 05:31:24;;;;;;;;;;;14.30;99.90;;;;;;5092446;28;20363;-81
2021/06/25 05:33:50;;;;;;;;;;;14.30;99.90;;;;;;5104505;28;19924;-81
2021/06/25 05:36:17;;;;;;;;;;;14.30;99.90;;;;;;5110566;28;20014;-81
2021/06/25 05:38:43;;;;;;;;;;;14.30;99.90;;;;;;5111294;28;20002;-80
2021/06/25 05:41:09;;;;;;;;;;;14.40;99.90;;;;;;5093552;28;19972;-81
2021/06/25 05:43:36;;;;;;;;;;;14.50;99.90;;;;;;5109967;28;19919;-81
2021/06/25 05:46:02;;;;;;;;;;;14.50;99.90;;;;;;5110144;28;19934;-80
2021/06/25 05:48:28;;;;;;;;;;;14.50;99.90;;;;;;5110984;28;20361;-81
2021/06/25 05:50:54;;;;;;;;;;;14.50;99.90;;;;;;5093677;28;19927;-81
2021/06/25 05:53:19;;;;;;;;;;;14.50;99.90;;;;;;5108835;28;19911;-81
2021/06/25 05:55:45;;;;;;;;;;;14.50;99.90;;;;;;5109479;28;20260;-81
2021/06/25 05:58:11;;;;;;;;;;;14.50;99.90;;;;;;5109667;28;19922;-81
2021/06/25 06:00:37;;;;;;;;;;;14.50;99.90;;;;;;5110492;28;19919;-80
2021/06/25 06:03:03;;;;;;;;;;;14.50;99.90;;;;;;5090034;28;20010;-80
2021/06/25 06:05:29;;;;;;;;;;;14.50;99.90;;;;;;5109709;28;20010;-81
2021/06/25 06:07:54;;;;;;;;;;;14.50;99.90;;;;;;5088720;28;20330;-81
2021/06/25 06:10:20;;;;;;;;;;;14.50;99.90;;;;;;5094467;28;19916;-81
2021/06/25 06:12:46;;;;;;;;;;;14.60;99.90;;;;;;5109084;28;19919;-81
2021/06/25 06:15:12;;;;;;;;;;;14.60;99.90;;;;;;5109321;28;19968;-81
2021/06/25 06:17:39;;;;;;;;;;;14.60;99.90;;;;;;5108754;28;19963;-81
2021/06/25 06:20:05;;;;;;;;;;;14.70;99.90;;;;;;5109806;28;19964;-80
2021/06/25 06:33:41;;;;;;;;;;;14.90;99.90;;;;;;5109926;28;19923;-81
2021/06/25 06:36:09;;;;;;;;;;;15.00;99.90;;;;;;5093747;28;20069;-80
2021/06/25 06:38:35;;;;;;;;;;;15.00;99.90;;;;;;5106158;28;20716;-81
2021/06/25 06:41:01;;;;;;;;;;;15.10;99.90;;;;;;5108082;28;20007;-81
2021/06/25 06:43:27;;;;;;;;;;;15.10;99.90;;;;;;5078047;28;20363;-80
2021/06/25 06:45:52;;;;;;;;;;;15.20;99.90;;;;;;5088799;28;19980;-81
2021/06/25 06:48:18;;;;;;;;;;;15.20;99.90;;;;;;5091393;28;19959;-81
2021/06/25 06:50:44;;;;;;;;;;;15.20;99.90;;;;;;5109228;28;19927;-81
2021/06/25 06:53:10;;;;;;;;;;;15.20;99.90;;;;;;5108710;28;19920;-81
2021/06/25 06:55:42;;;;;;;;;;;15.30;99.90;;;;;;5108895;28;21229;-81
2021/06/25 06:58:09;;;;;;;;;;;15.30;99.90;;;;;;5105343;28;19923;-80
2021/06/25 07:00:35;;;;;;;;;;;15.40;99.90;;;;;;5107497;28;19966;-80
2021/06/25 07:03:01;;;;;;;;;;;15.40;99.90;;;;;;5090971;28;19965;-81
2021/06/25 07:05:26;;;;;;;;;;;15.40;99.90;;;;;;5107711;28;19930;-81
2021/06/25 07:07:52;;;;;;;;;;;15.40;99.90;;;;;;5106515;28;20019;-81
2021/06/25 07:10:18;;;;;;;;;;;15.40;99.90;;;;;;5107546;28;19924;-80
2021/06/25 07:12:43;;;;;;;;;;;15.40;99.90;;;;;;5107476;28;19994;-81
2021/06/25 07:15:09;;;;;;;;;;;15.40;99.90;;;;;;5107695;28;19930;-81
2021/06/25 07:17:35;;;;;;;;;;;15.40;99.90;;;;;;5107373;28;20064;-80
2021/06/25 07:20:01;;;;;;;;;;;15.40;99.90;;;;;;5106505;28;19941;-81
2021/06/25 07:22:27;;;;;;;;;;;15.40;99.90;;;;;;5080823;28;20325;-81
2021/06/25 07:24:53;;;;;;;;;;;15.50;99.90;;;;;;5090724;28;19927;-81
2021/06/25 07:27:19;;;;;;;;;;;15.50;99.90;;;;;;5088045;28;19920;-80
2021/06/25 07:29:45;;;;;;;;;;;15.50;99.90;;;;;;5089923;28;20312;-81
2021/06/25 07:32:11;;;;;;;;;;;15.50;99.90;;;;;;5107391;28;19927;-81
2021/06/25 07:34:36;;;;;;;;;;;15.50;99.90;;;;;;5073329;28;19933;-81
2021/06/25 07:37:02;;;;;;;;;;;15.60;99.90;;;;;;5106451;28;20263;-81
2021/06/25 07:39:28;;;;;;;;;;;15.60;99.90;;;;;;5106357;28;20010;-81
2021/06/25 07:41:54;;;;;;;;;;;15.60;99.90;;;;;;5107838;28;19923;-81
2021/06/25 07:44:19;;;;;;;;;;;15.70;99.90;;;;;;5109377;28;20001;-80
2021/06/25 07:46:45;;;;;;;;;;;15.70;99.90;;;;;;5111517;27;19976;-81
2021/06/25 07:49:11;;;;;;;;;;;15.70;99.90;;;;;;5110410;28;19920;-81
2021/06/25 07:51:37;;;;;;;;;;;15.70;99.90;;;;;;5111537;28;19923;-81
2021/06/25 07:54:02;;;;;;;;;;;15.80;99.90;;;;;;5093804;28;19926;-81
2021/06/25 07:56:28;;;;;;;;;;;15.80;99.90;;;;;;5109974;28;20349;-81
2021/06/25 07:58:55;;;;;;;;;;;15.80;99.90;;;;;;5106798;28;19920;-81
2021/06/25 08:01:22;;;;;;;;;;;15.90;99.90;;;;;;5102617;28;19920;-81
2021/06/25 08:03:48;;;;;;;;;;;15.90;99.90;;;;;;5093725;28;19915;-81
2021/06/25 08:06:14;;;;;;;;;;;15.90;99.90;;;;;;5094064;28;20515;-81
2021/06/25 08:08:40;;;;;;;;;;;15.90;99.90;;;;;;5093619;28;19919;-81
2021/06/25 08:11:05;;;;;;;;;;;15.90;99.90;;;;;;5094177;28;19924;-81
2021/06/25 08:13:31;;;;;;;;;;;15.90;99.90;;;;;;5109787;27;20328;-81
2021/06/25 08:15:57;;;;;;;;;;;16.00;99.90;;;;;;5111297;28;19927;-81
2021/06/25 08:18:23;;;;;;;;;;;16.00;99.90;;;;;;5111166;28;19955;-81
2021/06/25 08:20:48;;;;;;;;;;;16.00;99.90;;;;;;5128526;27;19921;-81
2021/06/25 08:23:14;;;;;;;;;;;16.00;99.90;;;;;;5109896;28;20446;-81
2021/06/25 08:25:40;;;;;;;;;;;16.00;99.90;;;;;;5101573;28;20493;-81
2021/06/25 08:28:05;;;;;;;;;;;16.00;99.90;;;;;;5108244;28;19927;-81
2021/06/25 08:30:32;;;;;;;;;;;16.00;99.90;;;;;;5102670;28;20727;-82
2021/06/25 08:32:58;;;;;;;;;;;16.10;99.90;;;;;;5088095;28;19998;-82
2021/06/25 08:35:24;;;;;;;;;;;16.10;99.90;;;;;;5108900;28;19924;-82
2021/06/25 08:37:50;;;;;;;;;;;16.20;99.90;;;;;;5123527;27;19927;-83
2021/06/25 08:40:16;;;;;;;;;;;16.20;99.90;;;;;;5091535;28;19919;-82
2021/06/25 08:42:42;;;;;;;;;;;16.20;99.90;;;;;;5082750;28;20405;-82
2021/06/25 08:45:09;;;;;;;;;;;16.30;99.90;;;;;;5081697;28;19916;-82
2021/06/25 08:47:39;;;;;;;;;;;16.30;99.90;;;;;;5086491;28;19915;-82
2021/06/25 08:50:05;;;;;;;;;;;16.30;99.90;;;;;;5108552;28;19923;-82
2021/06/25 08:52:30;;;;;;;;;;;16.40;99.90;;;;;;5093092;28;20302;-81
2021/06/25 08:54:56;;;;;;;;;;;16.40;99.90;;;;;;5109260;28;19924;-81
2021/06/25 08:57:22;;;;;;;;;;;16.50;99.90;;;;;;5089958;28;19920;-83
2021/06/25 08:59:47;;;;;;;;;;;16.50;99.90;;;;;;5110460;28;19920;-82
2021/06/25 09:02:14;;;;;;;;;;;16.50;99.90;;;;;;5109860;28;19920;-81
2021/06/25 09:04:41;;;;;;;;;;;16.50;99.90;;;;;;5111234;28;19919;-81
2021/06/25 09:07:08;;;;;;;;;;;16.50;99.90;;;;;;5102211;28;19985;-84
2021/06/25 09:09:47;;;;;;;;;;;16.60;99.90;;;;;;5103128;28;19919;-82
2021/06/25 09:12:13;;;;;;;;;;;16.60;99.90;;;;;;5120647;27;19919;-82
2021/06/25 09:14:54;;;;;;;;;;;16.60;99.90;;;;;;5108632;28;19920;-82
2021/06/25 09:17:19;;;;;;;;;;;16.60;99.90;;;;;;5117290;27;19915;-82
2021/06/25 09:19:45;;;;;;;;;;;16.60;99.90;;;;;;5093813;28;19927;-82
2021/06/25 09:22:11;;;;;;;;;;;16.60;99.90;;;;;;5095801;28;19919;-82
2021/06/25 09:24:36;;;;;;;;;;;16.60;99.90;;;;;;5104177;28;19969;-81
2021/06/25 09:27:04;;;;;;;;;;;16.70;99.90;;;;;;5106692;28;19923;-83
2021/06/25 09:29:35;;;;;;;;;;;16.70;99.90;;;;;;5109466;28;19920;-82
2021/06/25 09:32:04;;;;;;;;;;;16.70;99.90;;;;;;5109344;28;20294;-82
2021/06/25 09:34:36;;;;;;;;;;;16.70;99.90;;;;;;5106994;28;19922;-82
2021/06/25 09:37:03;;;;;;;;;;;16.80;99.90;;;;;;5109151;28;19923;-83
2021/06/25 09:39:28;;;;;;;;;;;16.80;99.90;;;;;;5103380;28;20401;-82
2021/06/25 09:41:54;;;;;;;;;;;16.80;99.90;;;;;;5109498;28;19915;-82
2021/06/25 09:44:20;;;;;;;;;;;16.90;99.90;;;;;;5109480;28;19968;-82
2021/06/25 09:46:50;;;;;;;;;;;16.90;99.90;;;;;;5090901;28;19958;-82
2021/06/25 09:49:22;;;;;;;;;;;17.00;99.90;;;;;;5108807;28;19923;-82
2021/06/25 09:51:54;;;;;;;;;;;17.00;99.90;;;;;;5109543;28;19920;-82
2021/06/25 09:54:21;;;;;;;;;;;17.10;99.90;;;;;;5108909;28;19919;-82
2021/06/25 09:56:54;;;;;;;;;;;17.10;99.90;;;;;;5092239;28;19915;-83
2021/06/25 09:59:29;;;;;;;;;;;17.20;99.90;;;;;;5107416;28;19924;-82
2021/06/25 10:01:55;;;;;;;;;;;17.20;99.90;;;;;;5083929;28;19920;-82
2021/06/25 10:04:34;;;;;;;;;;;17.30;99.90;;;;;;5091696;28;20375;-82
2021/06/25 10:07:29;;;;;;;;;;;17.40;99.90;;;;;;5095991;28;19977;-82
2021/06/25 10:10:07;;;;;;;;;;;17.40;99.90;;;;;;5087455;28;20014;-82
2021/06/25 10:12:34;;;;;;;;;;;17.50;99.90;;;;;;5098697;28;19920;-82
2021/06/25 10:15:01;;;;;;;;;;;17.50;99.90;;;;;;5106577;28;20026;-82
2021/06/25 10:17:27;;;;;;;;;;;17.60;99.90;;;;;;5098330;28;20453;-81
2021/06/25 10:19:53;;;;;;;;;;;17.60;99.90;;;;;;5108276;28;19915;-82
2021/06/25 10:22:25;;;;;;;;;;;17.60;99.90;;;;;;5109323;28;19923;-82
2021/06/25 10:24:52;;;;;;;;;;;17.60;99.90;;;;;;5109043;28;20242;-82
2021/06/25 10:27:19;;;;;;;;;;;17.60;99.90;;;;;;5109344;28;19981;-83
2021/06/25 10:29:45;;;;;;;;;;;17.70;99.90;;;;;;5110049;28;19958;-82
2021/06/25 10:32:11;;;;;;;;;;;17.70;99.90;;;;;;5106845;28;19924;-82
2021/06/25 10:34:38;;;;;;;;;;;17.70;99.90;;;;;;5112162;27;19984;-82
2021/06/25 10:37:05;;;;;;;;;;;17.70;99.90;;;;;;5083307;28;20344;-82
2021/06/25 10:39:32;;;;;;;;;;;17.80;99.90;;;;;;5106231;28;19964;-83
2021/06/25 10:41:58;;;;;;;;;;;17.80;99.90;;;;;;5108881;28;19911;-83
2021/06/25 10:44:30;;;;;;;;;;;17.80;99.90;;;;;;5085162;28;19915;-82
2021/06/25 10:46:56;;;;;;;;;;;17.80;99.90;;;;;;5124527;27;19923;-82
2021/06/25 10:49:22;;;;;;;;;;;17.80;99.90;;;;;;5107882;28;20014;-82
2021/06/25 10:51:48;;;;;;;;;;;17.80;99.90;;;;;;5101697;28;20011;-82
2021/06/25 10:54:17;;;;;;;;;;;17.80;99.90;;;;;;5090431;28;20481;-82
2021/06/25 10:56:49;;;;;;;;;;;17.80;99.90;;;;;;5108735;28;20392;-82
2021/06/25 10:59:48;;;;;;;;;;;17.80;99.90;;;;;;5109519;28;20560;-82
2021/06/25 11:02:07;;;;;;;;;;;17.80;99.90;;;;;;5101024;28;19915;-82
2021/06/25 11:04:34;;;;;;;;;;;17.80;99.90;;;;;;5109369;28;19926;-82
2021/06/25 11:07:04;;;;;;;;;;;17.70;99.90;;;;;;5107504;28;19919;-82
2021/06/25 11:09:49;;;;;;;;;;;17.80;99.90;;;;;;5086603;28;19923;-82
2021/06/25 11:12:18;;;;;;;;;;;17.80;99.90;;;;;;5107311;28;19916;-82
2021/06/25 11:14:44;;;;;;;;;;;17.80;99.90;;;;;;5124220;27;19923;-82
2021/06/25 11:17:10;;;;;;;;;;;17.90;99.90;;;;;;5104927;28;19969;-82
2021/06/25 11:19:37;;;;;;;;;;;17.90;99.90;;;;;;5108235;28;20552;-82
2021/06/25 11:22:03;;;;;;;;;;;18.00;99.90;;;;;;5106686;28;20167;-81
2021/06/25 11:24:48;;;;;;;;;;;18.00;99.90;;;;;;5097431;28;20413;-81
2021/06/25 11:27:14;;;;;;;;;;;18.10;99.90;;;;;;5105920;28;20018;-81
2021/06/25 11:29:44;;;;;;;;;;;18.20;99.90;;;;;;5105315;28;20341;-82
2021/06/25 11:32:11;;;;;;;;;;;18.20;99.90;;;;;;5105511;28;19923;-81
2021/06/25 11:34:37;;;;;;;;;;;18.30;99.90;;;;;;5107925;28;19923;-81
2021/06/25 11:37:03;;;;;;;;;;;18.40;99.90;;;;;;5087826;28;20669;-81
2021/06/25 11:39:36;;;;;;;;;;;18.50;99.90;;;;;;5078701;28;20615;-82
2021/06/25 11:42:12;;;;;;;;;;;18.40;99.90;;;;;;5106476;28;19919;-81
2021/06/25 11:44:39;;;;;;;;;;;18.40;99.90;;;;;;5104610;28;19920;-81
2021/06/25 11:47:14;;;;;;;;;;;18.40;99.90;;;;;;5104958;28;19930;-81
2021/06/25 11:49:57;;;;;;;;;;;18.40;99.90;;;;;;5089218;28;19920;-81
2021/06/25 11:52:24;;;;;;;;;;;18.40;99.90;;;;;;5104400;28;19930;-81
2021/06/25 11:54:51;;;;;;;;;;;18.50;99.90;;;;;;5107084;28;20060;-81
2021/06/25 11:57:30;;;;;;;;;;;18.60;99.90;;;;;;5104098;28;20023;-81
2021/06/25 11:59:59;;;;;;;;;;;18.60;99.90;;;;;;5111939;28;20303;-81
2021/06/25 12:02:25;;;;;;;;;;;18.60;99.90;;;;;;5106641;28;19966;-82
2021/06/25 12:04:51;;;;;;;;;;;18.60;99.90;;;;;;5106106;28;20302;-79
2021/06/25 12:07:18;;;;;;;;;;;18.60;99.90;;;;;;5105783;28;19927;-79
2021/06/25 12:09:43;;;;;;;;;;;18.70;99.90;;;;;;5106425;28;19923;-80
2021/06/25 12:12:10;;;;;;;;;;;18.70;99.90;;;;;;5106840;28;20496;-79
2021/06/25 12:14:46;;;;;;;;;;;18.70;99.90;;;;;;5106205;28;20060;-80
2021/06/25 12:17:12;;;;;;;;;;;18.80;99.90;;;;;;5106148;28;19926;-80
2021/06/25 12:19:39;;;;;;;;;;;18.80;99.90;;;;;;5107129;28;19916;-80
2021/06/25 12:22:05;;;;;;;;;;;18.80;99.90;;;;;;5106534;28;20298;-79
2021/06/25 12:24:45;;;;;;;;;;;18.80;99.90;;;;;;5088582;28;20390;-79
2021/06/25 12:27:11;;;;;;;;;;;18.90;99.90;;;;;;5121884;27;20397;-80
2021/06/25 12:29:37;;;;;;;;;;;18.90;99.90;;;;;;5109219;28;19924;-80
2021/06/25 12:32:02;;;;;;;;;;;18.90;99.90;;;;;;5091755;28;20018;-80
2021/06/25 12:34:28;;;;;;;;;;;18.90;99.90;;;;;;5110015;28;19927;-80
2021/06/25 12:36:58;;;;;;;;;;;19.00;99.90;;;;;;5089920;28;19959;-79
2021/06/25 12:39:26;;;;;;;;;;;19.00;99.90;;;;;;5103909;28;20023;-79
2021/06/25 12:41:52;;;;;;;;;;;19.10;99.90;;;;;;5108450;28;19919;-80
2021/06/25 12:44:22;;;;;;;;;;;19.10;99.90;;;;;;5092357;28;20006;-79
2021/06/25 12:46:47;;;;;;;;;;;19.10;99.90;;;;;;5111021;28;19931;-78
2021/06/25 12:49:17;;;;;;;;;;;19.10;99.90;;;;;;5092362;28;19915;-79
2021/06/25 12:51:42;;;;;;;;;;;19.20;99.90;;;;;;5109582;28;19945;-78
2021/06/25 12:54:08;;;;;;;;;;;19.30;99.90;;;;;;5109222;28;19923;-79
2021/06/25 12:56:43;;;;;;;;;;;19.30;99.90;;;;;;5089980;28;19923;-79
2021/06/25 12:59:16;;;;;;;;;;;19.20;99.90;;;;;;5108464;28;19932;-78
2021/06/25 13:01:43;;;;;;;;;;;19.20;99.90;;;;;;5110388;28;19919;-79
2021/06/25 13:04:18;;;;;;;;;;;19.20;99.90;;;;;;5122402;27;20021;-79
2021/06/25 13:06:47;;;;;;;;;;;19.20;99.90;;;;;;5107571;28;19950;-79
2021/06/25 13:09:20;;;;;;;;;;;19.10;99.90;;;;;;5108216;28;19931;-80
2021/06/25 13:11:47;;;;;;;;;;;19.10;99.90;;;;;;5107918;28;20000;-79
2021/06/25 13:14:32;;;;;;;;;;;19.10;99.90;;;;;;5105856;28;19916;-81
2021/06/25 13:17:01;;;;;;;;;;;19.10;99.90;;;;;;5122321;27;19965;-81
2021/06/25 13:19:47;;;;;;;;;;;19.20;99.90;;;;;;5106787;28;19919;-82
2021/06/25 13:22:13;;;;;;;;;;;19.20;99.90;;;;;;5107867;28;19926;-81
2021/06/25 13:24:46;;;;;;;;;;;19.10;99.90;;;;;;5109998;28;19915;-81
2021/06/25 13:27:13;;;;;;;;;;;19.10;99.90;;;;;;5089306;28;19919;-81
2021/06/25 13:29:48;;;;;;;;;;;19.10;99.90;;;;;;5100310;28;19916;-81
2021/06/25 13:32:15;;;;;;;;;;;19.20;99.90;;;;;;5113869;27;20025;-81
2021/06/25 13:34:50;;;;;;;;;;;19.10;99.90;;;;;;5109534;28;19920;-81
2021/06/25 13:37:17;;;;;;;;;;;19.20;99.90;;;;;;5107350;28;19923;-81
2021/06/25 13:39:51;;;;;;;;;;;19.20;99.90;;;;;;5108666;28;19925;-81
2021/06/25 13:42:17;;;;;;;;;;;19.30;99.90;;;;;;5096519;28;20299;-81
2021/06/25 13:44:43;;;;;;;;;;;19.30;99.90;;;;;;5109456;27;19919;-79
2021/06/25 13:47:09;;;;;;;;;;;19.30;99.90;;;;;;5091410;28;19926;-80
2021/06/25 13:49:39;;;;;;;;;;;19.30;99.90;;;;;;5109828;28;19920;-81
2021/06/25 13:52:24;;;;;;;;;;;19.30;99.90;;;;;;5108243;28;19919;-81
2021/06/25 13:55:09;;;;;;;;;;;19.30;99.90;;;;;;5094926;28;19923;-81
2021/06/25 13:57:47;;;;;;;;;;;19.30;99.90;;;;;;5101852;28;20390;-81
2021/06/25 14:00:26;;;;;;;;;;;19.30;99.90;;;;;;5102123;28;19924;-81
2021/06/25 14:02:52;;;;;;;;;;;19.30;99.90;;;;;;5108637;28;19924;-81
2021/06/25 14:05:18;;;;;;;;;;;19.20;99.90;;;;;;5106769;28;19937;-81
2021/06/25 14:07:54;;;;;;;;;;;19.20;99.90;;;;;;5100450;28;19919;-81
2021/06/25 14:10:19;;;;;;;;;;;19.20;99.90;;;;;;5110956;27;21221;-80
2021/06/25 14:12:45;;;;;;;;;;;19.20;99.90;;;;;;5108109;28;19934;-81
2021/06/25 14:15:11;;;;;;;;;;;19.20;99.90;;;;;;5108579;28;19920;-80
2021/06/25 14:17:37;;;;;;;;;;;19.20;99.90;;;;;;5091057;28;19926;-80
2021/06/25 14:20:07;;;;;;;;;;;19.20;99.90;;;;;;5107674;28;19962;-80
2021/06/25 14:22:33;;;;;;;;;;;19.20;99.90;;;;;;5107834;28;20302;-81
2021/06/25 14:24:58;;;;;;;;;;;19.20;99.90;;;;;;5105577;28;19922;-81
2021/06/25 14:27:24;;;;;;;;;;;19.00;99.90;;;;;;5108816;28;19963;-81
2021/06/25 14:29:50;;;;;;;;;;;18.90;99.90;;;;;;5107312;28;19919;-81